sensor_id;sensor_type;location;lat;lon;timestamp;P1;durP1;ratioP1;P2;durP2;ratioP2
12042;SDS011;6082;49.306;12.862;2023-03-31T00:02:03;6.23;;;1.87;;
12042;SDS011;6082;49.306;12.862;2023-03-31T00:04:40;5.03;;;2.40;;
12042;SDS011;6082;49.306;12.862;2023-03-31T00:07:13;2.47;;;1.83;;
12042;SDS011;6082;49.306;12.862;2023-03-31T00:09:40;2.23;;;1.87;;
12042;SDS011;6082;49.306;12.862;2023-03-31T00:12:15;3.77;;;2.27;;
12042;SDS011;6082;49.306;12.862;2023-03-31T00:14:42;2.70;;;2.03;;
12042;SDS011;6082;49.306;12.862;2023-03-31T00:17:08;3.07;;;1.80;;
12042;SDS011;6082;49.306;12.862;2023-03-31T00:19:35;2.70;;;1.83;;
12042;SDS011;6082;49.306;12.862;2023-03-31T00:22:01;2.50;;;1.70;;
12042;SDS011;6082;49.306;12.862;2023-03-31T00:24:31;2.87;;;2.10;;
12042;SDS011;6082;49.306;12.862;2023-03-31T00:27:00;4.80;;;2.07;;
12042;SDS011;6082;49.306;12.862;2023-03-31T00:29:27;4.57;;;2.17;;
12042;SDS011;6082;49.306;12.862;2023-03-31T00:31:53;4.20;;;2.10;;
12042;SDS011;6082;49.306;12.862;2023-03-31T00:34:20;2.40;;;2.00;;
12042;SDS011;6082;49.306;12.862;2023-03-31T00:36:46;3.90;;;2.60;;
12042;SDS011;6082;49.306;12.862;2023-03-31T00:39:17;4.27;;;2.70;;
12042;SDS011;6082;49.306;12.862;2023-03-31T00:41:43;2.60;;;2.10;;
12042;SDS011;6082;49.306;12.862;2023-03-31T00:49:11;2.87;;;1.93;;
12042;SDS011;6082;49.306;12.862;2023-03-31T00:51:40;3.00;;;1.97;;
12042;SDS011;6082;49.306;12.862;2023-03-31T00:54:07;4.70;;;2.10;;
12042;SDS011;6082;49.306;12.862;2023-03-31T00:56:36;2.03;;;1.83;;
12042;SDS011;6082;49.306;12.862;2023-03-31T00:59:04;4.00;;;1.70;;
12042;SDS011;6082;49.306;12.862;2023-03-31T01:01:32;2.93;;;2.00;;
12042;SDS011;6082;49.306;12.862;2023-03-31T01:04:00;2.33;;;2.00;;
12042;SDS011;6082;49.306;12.862;2023-03-31T01:06:27;6.73;;;2.10;;
12042;SDS011;6082;49.306;12.862;2023-03-31T01:08:55;2.53;;;1.73;;
12042;SDS011;6082;49.306;12.862;2023-03-31T01:11:22;3.90;;;2.03;;
12042;SDS011;6082;49.306;12.862;2023-03-31T01:13:50;4.77;;;2.30;;
12042;SDS011;6082;49.306;12.862;2023-03-31T01:16:20;5.57;;;2.40;;
12042;SDS011;6082;49.306;12.862;2023-03-31T01:18:46;3.93;;;2.67;;
12042;SDS011;6082;49.306;12.862;2023-03-31T01:39:59;2.90;;;2.07;;
12042;SDS011;6082;49.306;12.862;2023-03-31T01:42:38;5.73;;;1.87;;
12042;SDS011;6082;49.306;12.862;2023-03-31T01:50:19;2.37;;;1.83;;
12042;SDS011;6082;49.306;12.862;2023-03-31T01:55:34;2.17;;;1.97;;
12042;SDS011;6082;49.306;12.862;2023-03-31T01:58:04;5.07;;;2.10;;
12042;SDS011;6082;49.306;12.862;2023-03-31T02:00:35;4.43;;;2.30;;
12042;SDS011;6082;49.306;12.862;2023-03-31T02:03:05;2.47;;;1.73;;
12042;SDS011;6082;49.306;12.862;2023-03-31T02:05:37;1.57;;;1.47;;
12042;SDS011;6082;49.306;12.862;2023-03-31T02:08:13;3.77;;;2.23;;
12042;SDS011;6082;49.306;12.862;2023-03-31T02:10:40;2.20;;;1.90;;
12042;SDS011;6082;49.306;12.862;2023-03-31T02:13:07;3.80;;;2.10;;
12042;SDS011;6082;49.306;12.862;2023-03-31T02:15:35;5.40;;;2.23;;
12042;SDS011;6082;49.306;12.862;2023-03-31T02:18:03;5.07;;;2.10;;
12042;SDS011;6082;49.306;12.862;2023-03-31T02:20:35;5.70;;;2.60;;
12042;SDS011;6082;49.306;12.862;2023-03-31T02:23:03;3.37;;;2.20;;
12042;SDS011;6082;49.306;12.862;2023-03-31T02:25:37;3.90;;;2.13;;
12042;SDS011;6082;49.306;12.862;2023-03-31T02:28:09;2.50;;;1.67;;
12042;SDS011;6082;49.306;12.862;2023-03-31T02:33:13;4.00;;;1.87;;
12042;SDS011;6082;49.306;12.862;2023-03-31T02:35:40;5.37;;;2.20;;
12042;SDS011;6082;49.306;12.862;2023-03-31T02:38:07;4.37;;;2.27;;
12042;SDS011;6082;49.306;12.862;2023-03-31T02:40:33;4.43;;;2.27;;
12042;SDS011;6082;49.306;12.862;2023-03-31T02:43:00;4.80;;;1.87;;
12042;SDS011;6082;49.306;12.862;2023-03-31T02:45:40;3.07;;;2.33;;
12042;SDS011;6082;49.306;12.862;2023-03-31T02:48:08;3.30;;;1.93;;
12042;SDS011;6082;49.306;12.862;2023-03-31T02:50:43;3.23;;;2.10;;
12042;SDS011;6082;49.306;12.862;2023-03-31T02:55:52;3.53;;;2.20;;
12042;SDS011;6082;49.306;12.862;2023-03-31T03:04:08;2.73;;;2.03;;
12042;SDS011;6082;49.306;12.862;2023-03-31T03:06:53;3.67;;;2.30;;
12042;SDS011;6082;49.306;12.862;2023-03-31T03:09:25;4.40;;;2.63;;
12042;SDS011;6082;49.306;12.862;2023-03-31T03:14:43;2.00;;;1.63;;
12042;SDS011;6082;49.306;12.862;2023-03-31T03:19:54;3.13;;;2.13;;
12042;SDS011;6082;49.306;12.862;2023-03-31T03:22:21;3.53;;;1.97;;
12042;SDS011;6082;49.306;12.862;2023-03-31T03:24:47;4.13;;;2.07;;
12042;SDS011;6082;49.306;12.862;2023-03-31T03:27:13;6.63;;;2.00;;
12042;SDS011;6082;49.306;12.862;2023-03-31T03:29:40;4.50;;;2.00;;
12042;SDS011;6082;49.306;12.862;2023-03-31T03:32:07;2.43;;;1.87;;
12042;SDS011;6082;49.306;12.862;2023-03-31T03:34:33;7.73;;;2.40;;
12042;SDS011;6082;49.306;12.862;2023-03-31T03:37:00;5.07;;;1.90;;
12042;SDS011;6082;49.306;12.862;2023-03-31T03:39:26;3.43;;;2.10;;
12042;SDS011;6082;49.306;12.862;2023-03-31T03:41:52;4.07;;;2.10;;
12042;SDS011;6082;49.306;12.862;2023-03-31T03:44:18;4.77;;;2.27;;
12042;SDS011;6082;49.306;12.862;2023-03-31T03:46:45;3.43;;;2.30;;
12042;SDS011;6082;49.306;12.862;2023-03-31T03:49:11;3.30;;;1.87;;
12042;SDS011;6082;49.306;12.862;2023-03-31T03:51:37;3.80;;;2.00;;
12042;SDS011;6082;49.306;12.862;2023-03-31T03:54:10;6.47;;;2.10;;
12042;SDS011;6082;49.306;12.862;2023-03-31T03:56:37;3.60;;;2.30;;
12042;SDS011;6082;49.306;12.862;2023-03-31T03:59:03;4.37;;;2.40;;
12042;SDS011;6082;49.306;12.862;2023-03-31T04:01:29;2.73;;;1.77;;
12042;SDS011;6082;49.306;12.862;2023-03-31T04:03:55;4.10;;;2.30;;
12042;SDS011;6082;49.306;12.862;2023-03-31T04:06:22;3.13;;;2.20;;
12042;SDS011;6082;49.306;12.862;2023-03-31T04:08:48;3.43;;;1.80;;
12042;SDS011;6082;49.306;12.862;2023-03-31T04:11:15;5.93;;;2.40;;
12042;SDS011;6082;49.306;12.862;2023-03-31T04:13:42;5.13;;;2.10;;
12042;SDS011;6082;49.306;12.862;2023-03-31T04:16:08;3.60;;;2.10;;
12042;SDS011;6082;49.306;12.862;2023-03-31T04:18:34;3.73;;;2.13;;
12042;SDS011;6082;49.306;12.862;2023-03-31T04:21:13;4.03;;;2.57;;
12042;SDS011;6082;49.306;12.862;2023-03-31T04:23:50;4.07;;;2.47;;
12042;SDS011;6082;49.306;12.862;2023-03-31T04:26:23;4.77;;;2.40;;
12042;SDS011;6082;49.306;12.862;2023-03-31T04:28:55;5.60;;;2.33;;
12042;SDS011;6082;49.306;12.862;2023-03-31T04:31:24;3.60;;;2.53;;
12042;SDS011;6082;49.306;12.862;2023-03-31T04:33:51;2.70;;;2.07;;
12042;SDS011;6082;49.306;12.862;2023-03-31T04:36:17;6.33;;;2.37;;
12042;SDS011;6082;49.306;12.862;2023-03-31T04:38:47;3.27;;;2.37;;
12042;SDS011;6082;49.306;12.862;2023-03-31T04:41:20;6.10;;;2.40;;
12042;SDS011;6082;49.306;12.862;2023-03-31T04:43:47;4.73;;;2.80;;
12042;SDS011;6082;49.306;12.862;2023-03-31T04:46:13;5.20;;;3.00;;
12042;SDS011;6082;49.306;12.862;2023-03-31T04:48:39;3.63;;;2.67;;
12042;SDS011;6082;49.306;12.862;2023-03-31T04:51:06;3.10;;;2.37;;
12042;SDS011;6082;49.306;12.862;2023-03-31T04:53:34;3.87;;;2.60;;
12042;SDS011;6082;49.306;12.862;2023-03-31T04:56:04;5.33;;;2.70;;
12042;SDS011;6082;49.306;12.862;2023-03-31T04:58:31;6.17;;;3.10;;
12042;SDS011;6082;49.306;12.862;2023-03-31T05:01:01;3.93;;;2.50;;
12042;SDS011;6082;49.306;12.862;2023-03-31T05:03:27;4.10;;;2.73;;
12042;SDS011;6082;49.306;12.862;2023-03-31T05:05:53;5.50;;;3.40;;
12042;SDS011;6082;49.306;12.862;2023-03-31T05:08:19;5.67;;;3.30;;
12042;SDS011;6082;49.306;12.862;2023-03-31T05:10:48;5.80;;;2.87;;
12042;SDS011;6082;49.306;12.862;2023-03-31T05:13:14;7.00;;;3.70;;
12042;SDS011;6082;49.306;12.862;2023-03-31T05:15:41;7.63;;;4.47;;
12042;SDS011;6082;49.306;12.862;2023-03-31T05:18:09;5.60;;;4.63;;
12042;SDS011;6082;49.306;12.862;2023-03-31T05:20:35;6.57;;;4.20;;
12042;SDS011;6082;49.306;12.862;2023-03-31T05:23:01;3.80;;;2.67;;
12042;SDS011;6082;49.306;12.862;2023-03-31T05:25:27;3.50;;;2.20;;
12042;SDS011;6082;49.306;12.862;2023-03-31T05:27:57;2.67;;;2.20;;
12042;SDS011;6082;49.306;12.862;2023-03-31T05:30:24;4.83;;;2.50;;
12042;SDS011;6082;49.306;12.862;2023-03-31T05:32:50;3.70;;;2.53;;
12042;SDS011;6082;49.306;12.862;2023-03-31T05:35:17;4.10;;;2.90;;
12042;SDS011;6082;49.306;12.862;2023-03-31T05:37:43;3.47;;;2.33;;
12042;SDS011;6082;49.306;12.862;2023-03-31T05:40:10;3.90;;;2.70;;
12042;SDS011;6082;49.306;12.862;2023-03-31T05:42:37;7.40;;;2.90;;
12042;SDS011;6082;49.306;12.862;2023-03-31T05:45:04;6.03;;;2.93;;
12042;SDS011;6082;49.306;12.862;2023-03-31T05:47:30;3.57;;;2.43;;
12042;SDS011;6082;49.306;12.862;2023-03-31T05:49:57;4.43;;;2.60;;
12042;SDS011;6082;49.306;12.862;2023-03-31T05:52:23;6.33;;;2.63;;
12042;SDS011;6082;49.306;12.862;2023-03-31T05:54:49;5.87;;;2.70;;
12042;SDS011;6082;49.306;12.862;2023-03-31T05:57:15;4.53;;;2.43;;
12042;SDS011;6082;49.306;12.862;2023-03-31T05:59:42;4.43;;;2.70;;
12042;SDS011;6082;49.306;12.862;2023-03-31T06:02:10;5.73;;;3.23;;
12042;SDS011;6082;49.306;12.862;2023-03-31T06:04:37;4.80;;;3.30;;
12042;SDS011;6082;49.306;12.862;2023-03-31T06:07:04;6.50;;;3.30;;
12042;SDS011;6082;49.306;12.862;2023-03-31T06:09:30;6.10;;;3.47;;
12042;SDS011;6082;49.306;12.862;2023-03-31T06:11:56;7.10;;;3.70;;
12042;SDS011;6082;49.306;12.862;2023-03-31T06:14:22;8.57;;;4.23;;
12042;SDS011;6082;49.306;12.862;2023-03-31T06:16:48;8.70;;;4.17;;
12042;SDS011;6082;49.306;12.862;2023-03-31T06:19:15;6.20;;;3.87;;
12042;SDS011;6082;49.306;12.862;2023-03-31T06:21:41;8.67;;;3.63;;
12042;SDS011;6082;49.306;12.862;2023-03-31T06:24:07;4.83;;;3.30;;
12042;SDS011;6082;49.306;12.862;2023-03-31T06:26:34;5.03;;;3.17;;
12042;SDS011;6082;49.306;12.862;2023-03-31T06:29:00;4.93;;;3.20;;
12042;SDS011;6082;49.306;12.862;2023-03-31T06:31:26;9.47;;;5.33;;
12042;SDS011;6082;49.306;12.862;2023-03-31T06:33:53;10.17;;;4.53;;
12042;SDS011;6082;49.306;12.862;2023-03-31T06:36:19;6.93;;;4.10;;
12042;SDS011;6082;49.306;12.862;2023-03-31T06:38:46;5.67;;;3.67;;
12042;SDS011;6082;49.306;12.862;2023-03-31T06:41:13;7.20;;;4.03;;
12042;SDS011;6082;49.306;12.862;2023-03-31T06:43:40;8.17;;;4.00;;
12042;SDS011;6082;49.306;12.862;2023-03-31T06:46:08;8.10;;;4.43;;
12042;SDS011;6082;49.306;12.862;2023-03-31T06:48:35;4.60;;;3.70;;
12042;SDS011;6082;49.306;12.862;2023-03-31T06:51:02;6.43;;;4.27;;
12042;SDS011;6082;49.306;12.862;2023-03-31T06:53:29;8.23;;;5.23;;
12042;SDS011;6082;49.306;12.862;2023-03-31T06:55:55;8.23;;;5.00;;
12042;SDS011;6082;49.306;12.862;2023-03-31T06:58:21;6.83;;;4.30;;
12042;SDS011;6082;49.306;12.862;2023-03-31T07:00:47;9.57;;;4.67;;
12042;SDS011;6082;49.306;12.862;2023-03-31T07:03:13;4.73;;;3.80;;
12042;SDS011;6082;49.306;12.862;2023-03-31T07:05:52;9.93;;;4.07;;
12042;SDS011;6082;49.306;12.862;2023-03-31T07:08:19;7.83;;;4.30;;
12042;SDS011;6082;49.306;12.862;2023-03-31T07:10:46;6.07;;;3.47;;
12042;SDS011;6082;49.306;12.862;2023-03-31T07:13:16;6.60;;;4.03;;
12042;SDS011;6082;49.306;12.862;2023-03-31T07:15:43;10.63;;;5.00;;
12042;SDS011;6082;49.306;12.862;2023-03-31T07:18:09;4.73;;;3.20;;
12042;SDS011;6082;49.306;12.862;2023-03-31T07:20:36;6.77;;;3.47;;
12042;SDS011;6082;49.306;12.862;2023-03-31T07:23:04;7.07;;;3.57;;
12042;SDS011;6082;49.306;12.862;2023-03-31T07:25:30;6.17;;;3.30;;
12042;SDS011;6082;49.306;12.862;2023-03-31T07:27:57;6.20;;;3.40;;
12042;SDS011;6082;49.306;12.862;2023-03-31T07:30:23;5.53;;;3.53;;
12042;SDS011;6082;49.306;12.862;2023-03-31T07:32:49;3.67;;;2.73;;
12042;SDS011;6082;49.306;12.862;2023-03-31T07:35:19;5.87;;;3.07;;
12042;SDS011;6082;49.306;12.862;2023-03-31T07:37:47;6.10;;;3.10;;
12042;SDS011;6082;49.306;12.862;2023-03-31T07:40:17;3.43;;;2.90;;
12042;SDS011;6082;49.306;12.862;2023-03-31T07:42:44;5.57;;;2.80;;
12042;SDS011;6082;49.306;12.862;2023-03-31T07:45:15;4.80;;;2.70;;
12042;SDS011;6082;49.306;12.862;2023-03-31T07:47:42;3.10;;;2.00;;
12042;SDS011;6082;49.306;12.862;2023-03-31T07:50:08;4.40;;;2.53;;
12042;SDS011;6082;49.306;12.862;2023-03-31T07:52:35;3.90;;;2.80;;
12042;SDS011;6082;49.306;12.862;2023-03-31T07:55:01;4.67;;;2.87;;
12042;SDS011;6082;49.306;12.862;2023-03-31T07:57:28;4.63;;;2.97;;
12042;SDS011;6082;49.306;12.862;2023-03-31T07:59:54;5.83;;;2.53;;
12042;SDS011;6082;49.306;12.862;2023-03-31T08:02:20;3.43;;;2.50;;
12042;SDS011;6082;49.306;12.862;2023-03-31T08:04:46;5.50;;;2.87;;
12042;SDS011;6082;49.306;12.862;2023-03-31T08:07:13;5.73;;;2.90;;
12042;SDS011;6082;49.306;12.862;2023-03-31T08:09:42;4.20;;;2.80;;
12042;SDS011;6082;49.306;12.862;2023-03-31T08:12:08;5.33;;;3.43;;
12042;SDS011;6082;49.306;12.862;2023-03-31T08:14:34;9.30;;;3.07;;
12042;SDS011;6082;49.306;12.862;2023-03-31T08:17:00;5.20;;;3.20;;
12042;SDS011;6082;49.306;12.862;2023-03-31T08:19:27;4.70;;;2.70;;
12042;SDS011;6082;49.306;12.862;2023-03-31T08:21:53;4.63;;;3.17;;
12042;SDS011;6082;49.306;12.862;2023-03-31T08:24:20;4.20;;;2.87;;
12042;SDS011;6082;49.306;12.862;2023-03-31T08:26:46;4.07;;;2.57;;
12042;SDS011;6082;49.306;12.862;2023-03-31T08:29:14;4.00;;;2.63;;
12042;SDS011;6082;49.306;12.862;2023-03-31T08:31:40;4.80;;;3.10;;
12042;SDS011;6082;49.306;12.862;2023-03-31T08:34:07;4.87;;;2.67;;
12042;SDS011;6082;49.306;12.862;2023-03-31T08:36:33;6.90;;;3.03;;
12042;SDS011;6082;49.306;12.862;2023-03-31T08:39:00;4.47;;;3.43;;
12042;SDS011;6082;49.306;12.862;2023-03-31T08:43:59;3.73;;;2.80;;
12042;SDS011;6082;49.306;12.862;2023-03-31T08:46:28;8.13;;;4.67;;
12042;SDS011;6082;49.306;12.862;2023-03-31T08:48:57;6.67;;;3.63;;
12042;SDS011;6082;49.306;12.862;2023-03-31T08:54:04;5.87;;;3.17;;
12042;SDS011;6082;49.306;12.862;2023-03-31T08:56:35;5.73;;;3.23;;
12042;SDS011;6082;49.306;12.862;2023-03-31T08:59:04;9.50;;;4.70;;
12042;SDS011;6082;49.306;12.862;2023-03-31T09:09:24;4.90;;;3.10;;
12042;SDS011;6082;49.306;12.862;2023-03-31T09:11:54;4.33;;;3.60;;
12042;SDS011;6082;49.306;12.862;2023-03-31T09:16:58;4.23;;;2.30;;
12042;SDS011;6082;49.306;12.862;2023-03-31T09:21:56;3.93;;;2.27;;
12042;SDS011;6082;49.306;12.862;2023-03-31T09:24:33;4.40;;;2.10;;
12042;SDS011;6082;49.306;12.862;2023-03-31T09:27:05;3.27;;;2.17;;
12042;SDS011;6082;49.306;12.862;2023-03-31T09:29:42;3.20;;;2.40;;
12042;SDS011;6082;49.306;12.862;2023-03-31T09:32:14;4.17;;;2.50;;
12042;SDS011;6082;49.306;12.862;2023-03-31T09:34:40;6.53;;;3.73;;
12042;SDS011;6082;49.306;12.862;2023-03-31T09:37:08;3.70;;;2.50;;
12042;SDS011;6082;49.306;12.862;2023-03-31T09:39:35;5.27;;;3.17;;
12042;SDS011;6082;49.306;12.862;2023-03-31T09:42:02;5.53;;;4.00;;
12042;SDS011;6082;49.306;12.862;2023-03-31T09:46:56;4.70;;;2.90;;
12042;SDS011;6082;49.306;12.862;2023-03-31T09:49:26;4.13;;;2.77;;
12042;SDS011;6082;49.306;12.862;2023-03-31T09:54:43;3.63;;;2.50;;
12042;SDS011;6082;49.306;12.862;2023-03-31T09:57:23;2.40;;;2.10;;
12042;SDS011;6082;49.306;12.862;2023-03-31T09:59:50;2.93;;;2.17;;
12042;SDS011;6082;49.306;12.862;2023-03-31T10:04:55;4.17;;;2.43;;
12042;SDS011;6082;49.306;12.862;2023-03-31T10:07:22;4.33;;;2.23;;
12042;SDS011;6082;49.306;12.862;2023-03-31T10:09:48;4.17;;;2.10;;
12042;SDS011;6082;49.306;12.862;2023-03-31T10:12:15;3.40;;;1.97;;
12042;SDS011;6082;49.306;12.862;2023-03-31T10:17:14;2.37;;;2.00;;
12042;SDS011;6082;49.306;12.862;2023-03-31T10:19:46;1.90;;;1.70;;
12042;SDS011;6082;49.306;12.862;2023-03-31T10:22:25;4.83;;;3.27;;
12042;SDS011;6082;49.306;12.862;2023-03-31T10:24:51;2.60;;;2.17;;
12042;SDS011;6082;49.306;12.862;2023-03-31T10:27:22;3.17;;;2.40;;
12042;SDS011;6082;49.306;12.862;2023-03-31T10:29:53;3.27;;;2.00;;
12042;SDS011;6082;49.306;12.862;2023-03-31T10:34:47;2.67;;;2.13;;
12042;SDS011;6082;49.306;12.862;2023-03-31T10:37:15;2.67;;;1.80;;
12042;SDS011;6082;49.306;12.862;2023-03-31T10:39:42;3.00;;;2.27;;
12042;SDS011;6082;49.306;12.862;2023-03-31T10:42:16;5.00;;;2.53;;
12042;SDS011;6082;49.306;12.862;2023-03-31T10:44:43;4.03;;;2.50;;
12042;SDS011;6082;49.306;12.862;2023-03-31T10:49:40;3.00;;;2.40;;
12042;SDS011;6082;49.306;12.862;2023-03-31T10:52:17;4.00;;;2.23;;
12042;SDS011;6082;49.306;12.862;2023-03-31T10:54:48;4.40;;;2.73;;
12042;SDS011;6082;49.306;12.862;2023-03-31T10:57:14;6.33;;;4.30;;
12042;SDS011;6082;49.306;12.862;2023-03-31T11:02:20;6.70;;;3.50;;
12042;SDS011;6082;49.306;12.862;2023-03-31T11:05:15;4.17;;;3.03;;
12042;SDS011;6082;49.306;12.862;2023-03-31T11:08:04;4.27;;;2.70;;
12042;SDS011;6082;49.306;12.862;2023-03-31T11:15:36;6.53;;;4.47;;
12042;SDS011;6082;49.306;12.862;2023-03-31T11:18:14;6.00;;;4.07;;
12042;SDS011;6082;49.306;12.862;2023-03-31T11:26:00;5.47;;;2.77;;
12042;SDS011;6082;49.306;12.862;2023-03-31T11:28:40;4.90;;;3.30;;
12042;SDS011;6082;49.306;12.862;2023-03-31T11:33:56;4.93;;;3.43;;
12042;SDS011;6082;49.306;12.862;2023-03-31T11:41:59;4.90;;;3.10;;
12042;SDS011;6082;49.306;12.862;2023-03-31T11:44:27;4.03;;;2.47;;
12042;SDS011;6082;49.306;12.862;2023-03-31T11:47:05;4.13;;;2.40;;
12042;SDS011;6082;49.306;12.862;2023-03-31T11:49:33;4.50;;;2.97;;
12042;SDS011;6082;49.306;12.862;2023-03-31T11:52:16;6.57;;;3.00;;
12042;SDS011;6082;49.306;12.862;2023-03-31T11:55:03;4.60;;;2.93;;
12042;SDS011;6082;49.306;12.862;2023-03-31T11:57:47;3.40;;;2.40;;
12042;SDS011;6082;49.306;12.862;2023-03-31T12:00:17;5.10;;;2.80;;
12042;SDS011;6082;49.306;12.862;2023-03-31T12:02:47;4.67;;;2.73;;
12042;SDS011;6082;49.306;12.862;2023-03-31T12:05:16;5.80;;;2.70;;
12042;SDS011;6082;49.306;12.862;2023-03-31T12:07:44;4.53;;;2.80;;
12042;SDS011;6082;49.306;12.862;2023-03-31T12:15:47;4.00;;;3.17;;
12042;SDS011;6082;49.306;12.862;2023-03-31T12:18:17;4.77;;;3.30;;
12042;SDS011;6082;49.306;12.862;2023-03-31T12:20:52;6.70;;;3.77;;
12042;SDS011;6082;49.306;12.862;2023-03-31T12:23:20;6.63;;;3.43;;
12042;SDS011;6082;49.306;12.862;2023-03-31T12:25:51;8.03;;;3.23;;
12042;SDS011;6082;49.306;12.862;2023-03-31T12:28:20;3.97;;;2.90;;
12042;SDS011;6082;49.306;12.862;2023-03-31T12:30:46;5.37;;;3.17;;
12042;SDS011;6082;49.306;12.862;2023-03-31T12:33:21;3.50;;;2.60;;
12042;SDS011;6082;49.306;12.862;2023-03-31T12:41:07;3.77;;;2.97;;
12042;SDS011;6082;49.306;12.862;2023-03-31T12:52:01;6.37;;;2.87;;
12042;SDS011;6082;49.306;12.862;2023-03-31T12:57:02;4.00;;;2.73;;
12042;SDS011;6082;49.306;12.862;2023-03-31T13:04:32;3.43;;;2.60;;
12042;SDS011;6082;49.306;12.862;2023-03-31T13:07:01;6.47;;;2.87;;
12042;SDS011;6082;49.306;12.862;2023-03-31T13:09:40;4.53;;;2.67;;
12042;SDS011;6082;49.306;12.862;2023-03-31T13:12:07;4.63;;;2.73;;
12042;SDS011;6082;49.306;12.862;2023-03-31T13:14:37;2.47;;;2.00;;
12042;SDS011;6082;49.306;12.862;2023-03-31T13:19:36;7.17;;;2.50;;
12042;SDS011;6082;49.306;12.862;2023-03-31T13:22:04;3.10;;;2.17;;
12042;SDS011;6082;49.306;12.862;2023-03-31T13:24:31;4.40;;;2.50;;
12042;SDS011;6082;49.306;12.862;2023-03-31T13:26:58;3.40;;;2.10;;
12042;SDS011;6082;49.306;12.862;2023-03-31T13:29:44;5.97;;;2.57;;
12042;SDS011;6082;49.306;12.862;2023-03-31T13:34:41;5.20;;;2.90;;
12042;SDS011;6082;49.306;12.862;2023-03-31T13:45:21;5.37;;;2.50;;
12042;SDS011;6082;49.306;12.862;2023-03-31T13:48:33;4.33;;;2.10;;
12042;SDS011;6082;49.306;12.862;2023-03-31T13:53:10;1.30;;;1.10;;
12042;SDS011;6082;49.306;12.862;2023-03-31T14:01:10;2.73;;;1.10;;
12042;SDS011;6082;49.306;12.862;2023-03-31T14:09:18;2.20;;;1.17;;
12042;SDS011;6082;49.306;12.862;2023-03-31T14:11:47;0.57;;;0.53;;
12042;SDS011;6082;49.306;12.862;2023-03-31T14:14:15;0.80;;;0.57;;
12042;SDS011;6082;49.306;12.862;2023-03-31T14:16:50;1.20;;;0.73;;
12042;SDS011;6082;49.306;12.862;2023-03-31T14:19:25;4.00;;;1.17;;
12042;SDS011;6082;49.306;12.862;2023-03-31T14:29:46;1.67;;;1.00;;
12042;SDS011;6082;49.306;12.862;2023-03-31T14:35:09;0.90;;;0.60;;
12042;SDS011;6082;49.306;12.862;2023-03-31T14:37:39;0.53;;;0.53;;
12042;SDS011;6082;49.306;12.862;2023-03-31T14:40:05;1.13;;;0.90;;
12042;SDS011;6082;49.306;12.862;2023-03-31T14:42:37;0.77;;;0.77;;
12042;SDS011;6082;49.306;12.862;2023-03-31T14:45:20;0.60;;;0.60;;
12042;SDS011;6082;49.306;12.862;2023-03-31T14:50:26;2.17;;;1.00;;
12042;SDS011;6082;49.306;12.862;2023-03-31T14:52:55;1.40;;;1.10;;
12042;SDS011;6082;49.306;12.862;2023-03-31T14:55:22;2.60;;;1.37;;
12042;SDS011;6082;49.306;12.862;2023-03-31T14:57:49;1.50;;;1.00;;
12042;SDS011;6082;49.306;12.862;2023-03-31T15:00:26;0.60;;;0.60;;
12042;SDS011;6082;49.306;12.862;2023-03-31T15:02:53;2.20;;;1.30;;
12042;SDS011;6082;49.306;12.862;2023-03-31T15:05:29;2.77;;;1.30;;
12042;SDS011;6082;49.306;12.862;2023-03-31T15:08:02;1.80;;;1.60;;
12042;SDS011;6082;49.306;12.862;2023-03-31T15:10:32;2.70;;;1.10;;
12042;SDS011;6082;49.306;12.862;2023-03-31T15:13:00;2.00;;;0.63;;
12042;SDS011;6082;49.306;12.862;2023-03-31T15:15:26;1.23;;;0.73;;
12042;SDS011;6082;49.306;12.862;2023-03-31T15:17:53;0.97;;;0.70;;
12042;SDS011;6082;49.306;12.862;2023-03-31T15:20:23;1.00;;;0.53;;
12042;SDS011;6082;49.306;12.862;2023-03-31T15:22:50;0.80;;;0.50;;
12042;SDS011;6082;49.306;12.862;2023-03-31T15:25:16;1.10;;;0.80;;
12042;SDS011;6082;49.306;12.862;2023-03-31T15:30:19;2.03;;;1.23;;
12042;SDS011;6082;49.306;12.862;2023-03-31T15:32:46;1.93;;;1.30;;
12042;SDS011;6082;49.306;12.862;2023-03-31T15:35:20;2.67;;;1.00;;
12042;SDS011;6082;49.306;12.862;2023-03-31T15:37:48;1.40;;;0.90;;
12042;SDS011;6082;49.306;12.862;2023-03-31T15:40:17;2.40;;;1.20;;
12042;SDS011;6082;49.306;12.862;2023-03-31T15:42:44;3.47;;;1.63;;
12042;SDS011;6082;49.306;12.862;2023-03-31T15:47:49;1.77;;;1.17;;
12042;SDS011;6082;49.306;12.862;2023-03-31T15:50:16;1.20;;;0.67;;
12042;SDS011;6082;49.306;12.862;2023-03-31T15:52:47;1.10;;;0.80;;
12042;SDS011;6082;49.306;12.862;2023-03-31T15:57:53;3.60;;;1.57;;
12042;SDS011;6082;49.306;12.862;2023-03-31T16:02:55;7.00;;;2.03;;
12042;SDS011;6082;49.306;12.862;2023-03-31T16:07:53;4.30;;;1.93;;
12042;SDS011;6082;49.306;12.862;2023-03-31T16:10:20;4.40;;;1.00;;
12042;SDS011;6082;49.306;12.862;2023-03-31T16:12:48;6.57;;;3.00;;
12042;SDS011;6082;49.306;12.862;2023-03-31T16:15:20;5.07;;;1.27;;
12042;SDS011;6082;49.306;12.862;2023-03-31T16:17:53;2.60;;;1.00;;
12042;SDS011;6082;49.306;12.862;2023-03-31T16:20:36;3.17;;;1.00;;
12042;SDS011;6082;49.306;12.862;2023-03-31T16:23:11;3.00;;;0.90;;
12042;SDS011;6082;49.306;12.862;2023-03-31T16:25:39;3.70;;;1.20;;
12042;SDS011;6082;49.306;12.862;2023-03-31T16:28:05;3.10;;;1.07;;
12042;SDS011;6082;49.306;12.862;2023-03-31T16:30:33;8.47;;;3.07;;
12042;SDS011;6082;49.306;12.862;2023-03-31T16:33:00;5.03;;;1.90;;
12042;SDS011;6082;49.306;12.862;2023-03-31T16:35:34;8.77;;;2.43;;
12042;SDS011;6082;49.306;12.862;2023-03-31T16:38:01;12.63;;;4.53;;
12042;SDS011;6082;49.306;12.862;2023-03-31T16:40:28;8.23;;;2.83;;
12042;SDS011;6082;49.306;12.862;2023-03-31T16:45:45;10.50;;;4.37;;
12042;SDS011;6082;49.306;12.862;2023-03-31T16:48:12;10.33;;;4.10;;
12042;SDS011;6082;49.306;12.862;2023-03-31T16:50:38;8.33;;;3.10;;
12042;SDS011;6082;49.306;12.862;2023-03-31T16:53:05;12.00;;;4.53;;
12042;SDS011;6082;49.306;12.862;2023-03-31T16:55:31;7.70;;;3.07;;
12042;SDS011;6082;49.306;12.862;2023-03-31T16:57:58;3.37;;;2.07;;
12042;SDS011;6082;49.306;12.862;2023-03-31T17:00:31;2.80;;;1.83;;
12042;SDS011;6082;49.306;12.862;2023-03-31T17:02:59;2.30;;;1.70;;
12042;SDS011;6082;49.306;12.862;2023-03-31T17:05:26;1.50;;;1.40;;
12042;SDS011;6082;49.306;12.862;2023-03-31T17:07:52;2.43;;;1.53;;
12042;SDS011;6082;49.306;12.862;2023-03-31T17:10:18;2.80;;;1.70;;
12042;SDS011;6082;49.306;12.862;2023-03-31T17:12:45;1.87;;;1.07;;
12042;SDS011;6082;49.306;12.862;2023-03-31T17:15:11;1.63;;;1.27;;
12042;SDS011;6082;49.306;12.862;2023-03-31T17:17:37;3.03;;;1.40;;
12042;SDS011;6082;49.306;12.862;2023-03-31T17:20:04;4.53;;;2.93;;
12042;SDS011;6082;49.306;12.862;2023-03-31T17:22:32;2.70;;;1.70;;
12042;SDS011;6082;49.306;12.862;2023-03-31T17:24:58;4.03;;;1.63;;
12042;SDS011;6082;49.306;12.862;2023-03-31T17:27:24;2.13;;;1.23;;
12042;SDS011;6082;49.306;12.862;2023-03-31T17:29:51;1.97;;;1.10;;
12042;SDS011;6082;49.306;12.862;2023-03-31T17:32:17;2.60;;;1.50;;
12042;SDS011;6082;49.306;12.862;2023-03-31T17:34:44;2.20;;;1.60;;
12042;SDS011;6082;49.306;12.862;2023-03-31T17:37:12;3.50;;;2.00;;
12042;SDS011;6082;49.306;12.862;2023-03-31T17:39:38;3.73;;;1.90;;
12042;SDS011;6082;49.306;12.862;2023-03-31T17:42:04;5.13;;;1.50;;
12042;SDS011;6082;49.306;12.862;2023-03-31T17:44:30;3.17;;;1.83;;
12042;SDS011;6082;49.306;12.862;2023-03-31T17:46:56;3.20;;;2.00;;
12042;SDS011;6082;49.306;12.862;2023-03-31T17:49:22;3.27;;;1.70;;
12042;SDS011;6082;49.306;12.862;2023-03-31T17:51:49;1.37;;;0.90;;
12042;SDS011;6082;49.306;12.862;2023-03-31T17:54:17;1.23;;;0.93;;
12042;SDS011;6082;49.306;12.862;2023-03-31T17:56:43;1.00;;;0.90;;
12042;SDS011;6082;49.306;12.862;2023-03-31T17:59:18;3.20;;;0.97;;
12042;SDS011;6082;49.306;12.862;2023-03-31T18:01:44;0.77;;;0.77;;
12042;SDS011;6082;49.306;12.862;2023-03-31T18:04:13;4.50;;;1.00;;